sensor_id;sensor_type;location;lat;lon;timestamp;temperature;humidity
22633;DHT22;11483;55.828;37.488;2023-03-21T00:00:37;4.90;99.90
22633;DHT22;11483;55.828;37.488;2023-03-21T00:03:03;4.80;99.90
22633;DHT22;11483;55.828;37.488;2023-03-21T00:05:30;4.80;99.90
22633;DHT22;11483;55.828;37.488;2023-03-21T00:07:56;4.80;99.90
22633;DHT22;11483;55.828;37.488;2023-03-21T00:10:22;4.80;99.90
22633;DHT22;11483;55.828;37.488;2023-03-21T00:12:48;4.80;99.90
22633;DHT22;11483;55.828;37.488;2023-03-21T00:15:20;4.80;99.90
22633;DHT22;11483;55.828;37.488;2023-03-21T00:17:46;4.70;99.90
22633;DHT22;11483;55.828;37.488;2023-03-21T00:20:15;4.70;99.90
22633;DHT22;11483;55.828;37.488;2023-03-21T00:22:41;4.70;99.90
22633;DHT22;11483;55.828;37.488;2023-03-21T00:25:08;4.70;99.90
22633;DHT22;11483;55.828;37.488;2023-03-21T00:27:35;4.70;99.90
22633;DHT22;11483;55.828;37.488;2023-03-21T00:30:02;4.70;99.90
22633;DHT22;11483;55.828;37.488;2023-03-21T00:32:28;4.70;99.90
22633;DHT22;11483;55.828;37.488;2023-03-21T00:34:54;4.70;99.90
22633;DHT22;11483;55.828;37.488;2023-03-21T00:37:20;4.70;99.90
22633;DHT22;11483;55.828;37.488;2023-03-21T00:39:47;4.70;99.90
22633;DHT22;11483;55.828;37.488;2023-03-21T00:42:16;4.70;99.90
22633;DHT22;11483;55.828;37.488;2023-03-21T00:44:43;4.70;99.90
22633;DHT22;11483;55.828;37.488;2023-03-21T00:47:13;4.70;99.90
22633;DHT22;11483;55.828;37.488;2023-03-21T00:49:39;4.70;99.90
22633;DHT22;11483;55.828;37.488;2023-03-21T00:52:07;4.60;99.90
22633;DHT22;11483;55.828;37.488;2023-03-21T00:54:34;4.60;99.90
22633;DHT22;11483;55.828;37.488;2023-03-21T00:57:01;4.70;99.90
22633;DHT22;11483;55.828;37.488;2023-03-21T00:59:28;4.60;99.90
22633;DHT22;11483;55.828;37.488;2023-03-21T01:01:54;4.60;99.90
22633;DHT22;11483;55.828;37.488;2023-03-21T01:04:21;4.60;99.90
22633;DHT22;11483;55.828;37.488;2023-03-21T01:06:52;4.60;99.90
22633;DHT22;11483;55.828;37.488;2023-03-21T01:09:20;4.60;99.90
22633;DHT22;11483;55.828;37.488;2023-03-21T01:11:47;4.60;99.90
22633;DHT22;11483;55.828;37.488;2023-03-21T01:14:14;4.60;99.90
22633;DHT22;11483;55.828;37.488;2023-03-21T01:16:40;4.60;99.90
22633;DHT22;11483;55.828;37.488;2023-03-21T01:19:08;4.60;99.90
22633;DHT22;11483;55.828;37.488;2023-03-21T01:21:34;4.50;99.90
22633;DHT22;11483;55.828;37.488;2023-03-21T01:24:00;4.60;99.90
22633;DHT22;11483;55.828;37.488;2023-03-21T01:26:27;4.60;99.90
22633;DHT22;11483;55.828;37.488;2023-03-21T01:28:53;4.60;99.90
22633;DHT22;11483;55.828;37.488;2023-03-21T01:31:19;4.60;99.90
22633;DHT22;11483;55.828;37.488;2023-03-21T01:33:46;4.60;99.90
22633;DHT22;11483;55.828;37.488;2023-03-21T01:36:21;4.70;99.90
22633;DHT22;11483;55.828;37.488;2023-03-21T01:38:47;4.70;99.90
22633;DHT22;11483;55.828;37.488;2023-03-21T01:41:29;4.60;99.90
22633;DHT22;11483;55.828;37.488;2023-03-21T01:43:57;4.60;99.90
22633;DHT22;11483;55.828;37.488;2023-03-21T01:46:42;4.60;99.90
22633;DHT22;11483;55.828;37.488;2023-03-21T01:49:30;4.60;99.90
22633;DHT22;11483;55.828;37.488;2023-03-21T01:52:09;4.60;99.90
22633;DHT22;11483;55.828;37.488;2023-03-21T01:54:38;4.60;99.90
22633;DHT22;11483;55.828;37.488;2023-03-21T01:57:11;4.60;99.90
22633;DHT22;11483;55.828;37.488;2023-03-21T01:59:47;4.60;99.90
22633;DHT22;11483;55.828;37.488;2023-03-21T02:02:32;4.60;99.90
22633;DHT22;11483;55.828;37.488;2023-03-21T02:05:02;4.60;99.90
22633;DHT22;11483;55.828;37.488;2023-03-21T02:07:33;4.60;99.90
22633;DHT22;11483;55.828;37.488;2023-03-21T02:10:02;4.50;99.90
22633;DHT22;11483;55.828;37.488;2023-03-21T02:12:30;4.60;99.90
22633;DHT22;11483;55.828;37.488;2023-03-21T02:14:57;4.60;99.90
22633;DHT22;11483;55.828;37.488;2023-03-21T02:18:01;4.60;99.90
22633;DHT22;11483;55.828;37.488;2023-03-21T02:37:22;4.50;99.90
22633;DHT22;11483;55.828;37.488;2023-03-21T02:43:27;4.40;99.90
22633;DHT22;11483;55.828;37.488;2023-03-21T02:45:31;4.40;99.90
22633;DHT22;11483;55.828;37.488;2023-03-21T02:48:08;4.40;99.90
22633;DHT22;11483;55.828;37.488;2023-03-21T02:50:41;4.30;99.90
22633;DHT22;11483;55.828;37.488;2023-03-21T02:53:30;4.40;99.90
22633;DHT22;11483;55.828;37.488;2023-03-21T02:55:59;4.40;99.90
22633;DHT22;11483;55.828;37.488;2023-03-21T02:58:27;4.40;99.90
22633;DHT22;11483;55.828;37.488;2023-03-21T03:00:53;4.40;99.90
22633;DHT22;11483;55.828;37.488;2023-03-21T03:03:39;4.40;99.90
22633;DHT22;11483;55.828;37.488;2023-03-21T03:06:19;4.40;99.90
22633;DHT22;11483;55.828;37.488;2023-03-21T03:11:33;4.30;99.90
22633;DHT22;11483;55.828;37.488;2023-03-21T03:17:31;4.30;99.90
22633;DHT22;11483;55.828;37.488;2023-03-21T03:19:40;4.30;99.90
22633;DHT22;11483;55.828;37.488;2023-03-21T03:22:13;4.30;99.90
22633;DHT22;11483;55.828;37.488;2023-03-21T03:24:59;4.30;99.90
22633;DHT22;11483;55.828;37.488;2023-03-21T03:27:31;4.40;99.90
22633;DHT22;11483;55.828;37.488;2023-03-21T03:30:01;4.40;99.90
22633;DHT22;11483;55.828;37.488;2023-03-21T03:32:54;4.40;99.90
22633;DHT22;11483;55.828;37.488;2023-03-21T03:35:21;4.40;99.90
22633;DHT22;11483;55.828;37.488;2023-03-21T03:37:53;4.40;99.90
22633;DHT22;11483;55.828;37.488;2023-03-21T03:40:27;4.40;99.90
22633;DHT22;11483;55.828;37.488;2023-03-21T03:43:04;4.30;99.90
22633;DHT22;11483;55.828;37.488;2023-03-21T03:45:34;4.30;99.90
22633;DHT22;11483;55.828;37.488;2023-03-21T03:48:23;4.30;99.90
22633;DHT22;11483;55.828;37.488;2023-03-21T03:51:34;4.20;99.90
22633;DHT22;11483;55.828;37.488;2023-03-21T03:54:13;4.30;99.90
22633;DHT22;11483;55.828;37.488;2023-03-21T03:56:42;4.20;99.90
22633;DHT22;11483;55.828;37.488;2023-03-21T03:59:08;4.20;99.90
22633;DHT22;11483;55.828;37.488;2023-03-21T04:01:35;4.20;99.90
22633;DHT22;11483;55.828;37.488;2023-03-21T04:04:00;4.20;99.90
22633;DHT22;11483;55.828;37.488;2023-03-21T04:06:27;4.20;99.90
22633;DHT22;11483;55.828;37.488;2023-03-21T04:08:54;4.30;99.90
22633;DHT22;11483;55.828;37.488;2023-03-21T04:11:21;4.30;99.90
22633;DHT22;11483;55.828;37.488;2023-03-21T04:13:47;4.30;99.90
22633;DHT22;11483;55.828;37.488;2023-03-21T04:16:13;4.40;99.90
22633;DHT22;11483;55.828;37.488;2023-03-21T04:18:40;4.40;99.90
22633;DHT22;11483;55.828;37.488;2023-03-21T04:21:10;4.40;99.90
22633;DHT22;11483;55.828;37.488;2023-03-21T04:23:40;4.50;99.90
22633;DHT22;11483;55.828;37.488;2023-03-21T04:26:06;4.50;99.90
22633;DHT22;11483;55.828;37.488;2023-03-21T04:28:33;4.50;99.90
22633;DHT22;11483;55.828;37.488;2023-03-21T04:31:00;4.50;99.90
22633;DHT22;11483;55.828;37.488;2023-03-21T04:33:27;4.60;99.90
22633;DHT22;11483;55.828;37.488;2023-03-21T04:35:53;4.70;99.90
22633;DHT22;11483;55.828;37.488;2023-03-21T04:38:26;4.70;99.90
22633;DHT22;11483;55.828;37.488;2023-03-21T04:40:57;4.70;99.90
22633;DHT22;11483;55.828;37.488;2023-03-21T04:43:23;4.80;99.90
22633;DHT22;11483;55.828;37.488;2023-03-21T04:45:50;4.90;99.90
22633;DHT22;11483;55.828;37.488;2023-03-21T04:48:16;4.90;99.90
22633;DHT22;11483;55.828;37.488;2023-03-21T04:50:47;5.00;99.90
22633;DHT22;11483;55.828;37.488;2023-03-21T04:53:13;5.00;99.90
22633;DHT22;11483;55.828;37.488;2023-03-21T04:55:39;5.00;99.90
22633;DHT22;11483;55.828;37.488;2023-03-21T04:58:05;5.00;99.90
22633;DHT22;11483;55.828;37.488;2023-03-21T05:00:31;5.00;99.90
22633;DHT22;11483;55.828;37.488;2023-03-21T05:03:03;5.00;99.90
22633;DHT22;11483;55.828;37.488;2023-03-21T05:05:29;5.00;99.90
22633;DHT22;11483;55.828;37.488;2023-03-21T05:07:56;5.00;99.90
22633;DHT22;11483;55.828;37.488;2023-03-21T05:10:22;5.00;99.90
22633;DHT22;11483;55.828;37.488;2023-03-21T05:12:47;4.90;99.90
22633;DHT22;11483;55.828;37.488;2023-03-21T05:15:13;4.90;99.90
22633;DHT22;11483;55.828;37.488;2023-03-21T05:17:39;4.90;99.90
22633;DHT22;11483;55.828;37.488;2023-03-21T05:20:08;4.90;99.90
22633;DHT22;11483;55.828;37.488;2023-03-21T05:22:35;4.90;99.90
22633;DHT22;11483;55.828;37.488;2023-03-21T05:25:08;5.00;99.90
22633;DHT22;11483;55.828;37.488;2023-03-21T05:27:35;5.00;99.90
22633;DHT22;11483;55.828;37.488;2023-03-21T05:30:07;5.10;99.90
22633;DHT22;11483;55.828;37.488;2023-03-21T05:32:34;5.10;99.90
22633;DHT22;11483;55.828;37.488;2023-03-21T05:35:00;5.10;99.90
22633;DHT22;11483;55.828;37.488;2023-03-21T05:37:27;5.20;99.90
22633;DHT22;11483;55.828;37.488;2023-03-21T05:39:53;5.20;99.90
22633;DHT22;11483;55.828;37.488;2023-03-21T05:42:19;5.20;99.90
22633;DHT22;11483;55.828;37.488;2023-03-21T05:44:46;5.20;99.90
22633;DHT22;11483;55.828;37.488;2023-03-21T05:47:13;5.30;99.90
22633;DHT22;11483;55.828;37.488;2023-03-21T05:49:40;5.30;99.90
22633;DHT22;11483;55.828;37.488;2023-03-21T05:52:06;5.30;99.90
22633;DHT22;11483;55.828;37.488;2023-03-21T05:54:32;5.30;99.90
22633;DHT22;11483;55.828;37.488;2023-03-21T05:56:58;5.40;99.90
22633;DHT22;11483;55.828;37.488;2023-03-21T05:59:24;5.50;99.90
22633;DHT22;11483;55.828;37.488;2023-03-21T06:01:50;5.60;99.90
22633;DHT22;11483;55.828;37.488;2023-03-21T06:04:16;5.60;99.90
22633;DHT22;11483;55.828;37.488;2023-03-21T06:06:42;5.70;99.90
22633;DHT22;11483;55.828;37.488;2023-03-21T06:09:08;5.60;99.90
22633;DHT22;11483;55.828;37.488;2023-03-21T06:11:36;5.70;99.90
22633;DHT22;11483;55.828;37.488;2023-03-21T06:14:02;5.80;99.90
22633;DHT22;11483;55.828;37.488;2023-03-21T06:16:28;5.80;99.90
22633;DHT22;11483;55.828;37.488;2023-03-21T06:18:55;5.90;99.90
22633;DHT22;11483;55.828;37.488;2023-03-21T06:21:21;6.00;99.90
22633;DHT22;11483;55.828;37.488;2023-03-21T06:23:47;5.90;99.90
22633;DHT22;11483;55.828;37.488;2023-03-21T06:26:16;5.90;99.90
22633;DHT22;11483;55.828;37.488;2023-03-21T06:28:48;5.90;99.90
22633;DHT22;11483;55.828;37.488;2023-03-21T06:31:14;6.00;99.90
22633;DHT22;11483;55.828;37.488;2023-03-21T06:34:00;6.00;99.90
22633;DHT22;11483;55.828;37.488;2023-03-21T06:36:35;6.10;99.90
22633;DHT22;11483;55.828;37.488;2023-03-21T06:39:01;6.30;99.90
22633;DHT22;11483;55.828;37.488;2023-03-21T06:41:27;6.30;99.90
22633;DHT22;11483;55.828;37.488;2023-03-21T06:43:53;6.40;99.90
22633;DHT22;11483;55.828;37.488;2023-03-21T06:46:19;6.50;99.90
22633;DHT22;11483;55.828;37.488;2023-03-21T06:48:45;6.60;99.90
22633;DHT22;11483;55.828;37.488;2023-03-21T06:51:14;6.70;99.90
22633;DHT22;11483;55.828;37.488;2023-03-21T06:53:40;6.80;99.90
22633;DHT22;11483;55.828;37.488;2023-03-21T06:56:08;7.00;99.90
22633;DHT22;11483;55.828;37.488;2023-03-21T06:58:35;7.10;99.90
22633;DHT22;11483;55.828;37.488;2023-03-21T07:01:02;7.40;99.90
22633;DHT22;11483;55.828;37.488;2023-03-21T07:03:28;7.50;99.90
22633;DHT22;11483;55.828;37.488;2023-03-21T07:05:54;7.70;99.90
22633;DHT22;11483;55.828;37.488;2023-03-21T07:08:20;7.80;99.90
22633;DHT22;11483;55.828;37.488;2023-03-21T07:10:46;8.00;99.90
22633;DHT22;11483;55.828;37.488;2023-03-21T07:13:13;8.10;99.90
22633;DHT22;11483;55.828;37.488;2023-03-21T07:15:38;8.40;99.90
22633;DHT22;11483;55.828;37.488;2023-03-21T07:18:07;8.20;99.90
22633;DHT22;11483;55.828;37.488;2023-03-21T07:20:34;8.20;99.90
22633;DHT22;11483;55.828;37.488;2023-03-21T07:23:03;8.20;99.90
22633;DHT22;11483;55.828;37.488;2023-03-21T07:25:29;8.20;99.90
22633;DHT22;11483;55.828;37.488;2023-03-21T07:27:55;8.10;99.90
22633;DHT22;11483;55.828;37.488;2023-03-21T07:30:21;8.10;99.90
22633;DHT22;11483;55.828;37.488;2023-03-21T07:32:47;8.00;99.90
22633;DHT22;11483;55.828;37.488;2023-03-21T07:35:15;8.00;99.90
22633;DHT22;11483;55.828;37.488;2023-03-21T07:37:42;7.70;99.90
22633;DHT22;11483;55.828;37.488;2023-03-21T07:40:09;7.50;99.90
22633;DHT22;11483;55.828;37.488;2023-03-21T07:42:40;7.40;99.90
22633;DHT22;11483;55.828;37.488;2023-03-21T07:45:07;7.30;99.90
22633;DHT22;11483;55.828;37.488;2023-03-21T07:47:34;7.20;99.90
22633;DHT22;11483;55.828;37.488;2023-03-21T07:50:00;7.20;99.90
22633;DHT22;11483;55.828;37.488;2023-03-21T07:52:26;7.20;99.90
22633;DHT22;11483;55.828;37.488;2023-03-21T07:54:52;7.20;99.90
22633;DHT22;11483;55.828;37.488;2023-03-21T07:57:18;7.30;99.90
22633;DHT22;11483;55.828;37.488;2023-03-21T07:59:43;7.40;99.90
22633;DHT22;11483;55.828;37.488;2023-03-21T08:02:13;7.50;99.90
22633;DHT22;11483;55.828;37.488;2023-03-21T08:04:39;7.80;99.90
22633;DHT22;11483;55.828;37.488;2023-03-21T08:07:05;7.90;99.90
22633;DHT22;11483;55.828;37.488;2023-03-21T08:09:31;8.00;99.90
22633;DHT22;11483;55.828;37.488;2023-03-21T08:11:57;8.20;99.90
22633;DHT22;11483;55.828;37.488;2023-03-21T08:14:23;8.10;99.90
22633;DHT22;11483;55.828;37.488;2023-03-21T08:16:49;8.20;99.90
22633;DHT22;11483;55.828;37.488;2023-03-21T08:19:14;8.30;99.90
22633;DHT22;11483;55.828;37.488;2023-03-21T08:21:42;8.50;99.90
22633;DHT22;11483;55.828;37.488;2023-03-21T08:24:08;8.70;99.90
22633;DHT22;11483;55.828;37.488;2023-03-21T08:26:34;8.90;99.90
22633;DHT22;11483;55.828;37.488;2023-03-21T08:29:00;9.00;99.90
22633;DHT22;11483;55.828;37.488;2023-03-21T08:31:26;9.20;99.90
22633;DHT22;11483;55.828;37.488;2023-03-21T08:33:53;9.20;99.90
22633;DHT22;11483;55.828;37.488;2023-03-21T08:36:23;9.10;99.90
22633;DHT22;11483;55.828;37.488;2023-03-21T08:38:50;9.00;99.90
22633;DHT22;11483;55.828;37.488;2023-03-21T08:41:20;8.90;99.90
22633;DHT22;11483;55.828;37.488;2023-03-21T08:43:49;8.80;99.90
22633;DHT22;11483;55.828;37.488;2023-03-21T08:46:15;8.80;99.90
22633;DHT22;11483;55.828;37.488;2023-03-21T08:48:41;8.90;99.90
22633;DHT22;11483;55.828;37.488;2023-03-21T08:51:07;8.90;99.90
22633;DHT22;11483;55.828;37.488;2023-03-21T08:53:33;9.00;99.90
22633;DHT22;11483;55.828;37.488;2023-03-21T08:55:59;9.20;99.90
22633;DHT22;11483;55.828;37.488;2023-03-21T08:58:25;9.40;99.90
22633;DHT22;11483;55.828;37.488;2023-03-21T09:00:51;9.50;99.90
22633;DHT22;11483;55.828;37.488;2023-03-21T09:03:17;9.40;99.90
22633;DHT22;11483;55.828;37.488;2023-03-21T09:05:44;9.50;99.90
22633;DHT22;11483;55.828;37.488;2023-03-21T09:08:11;9.50;99.90
22633;DHT22;11483;55.828;37.488;2023-03-21T09:10:38;9.60;99.90
22633;DHT22;11483;55.828;37.488;2023-03-21T09:13:04;9.70;99.90
22633;DHT22;11483;55.828;37.488;2023-03-21T09:15:30;9.80;99.90
22633;DHT22;11483;55.828;37.488;2023-03-21T09:17:57;9.80;99.90
22633;DHT22;11483;55.828;37.488;2023-03-21T09:20:38;9.70;99.90
22633;DHT22;11483;55.828;37.488;2023-03-21T09:23:04;9.70;99.90
22633;DHT22;11483;55.828;37.488;2023-03-21T09:25:30;9.70;99.90
22633;DHT22;11483;55.828;37.488;2023-03-21T09:27:58;9.70;99.90
22633;DHT22;11483;55.828;37.488;2023-03-21T09:30:25;9.60;99.90
22633;DHT22;11483;55.828;37.488;2023-03-21T09:32:50;9.70;99.90
22633;DHT22;11483;55.828;37.488;2023-03-21T09:35:18;10.00;99.90
22633;DHT22;11483;55.828;37.488;2023-03-21T09:37:48;10.30;99.90
22633;DHT22;11483;55.828;37.488;2023-03-21T09:40:22;10.50;99.90
22633;DHT22;11483;55.828;37.488;2023-03-21T09:45:51;11.60;99.90
22633;DHT22;11483;55.828;37.488;2023-03-21T09:51:12;12.40;99.90
22633;DHT22;11483;55.828;37.488;2023-03-21T09:53:41;13.00;99.90
22633;DHT22;11483;55.828;37.488;2023-03-21T09:56:10;13.20;99.90
22633;DHT22;11483;55.828;37.488;2023-03-21T09:58:53;12.90;99.90
22633;DHT22;11483;55.828;37.488;2023-03-21T10:01:28;12.70;99.90
22633;DHT22;11483;55.828;37.488;2023-03-21T10:04:00;12.50;99.90
22633;DHT22;11483;55.828;37.488;2023-03-21T10:06:28;12.40;99.90
22633;DHT22;11483;55.828;37.488;2023-03-21T10:09:19;12.30;99.90
22633;DHT22;11483;55.828;37.488;2023-03-21T10:12:15;12.50;99.90
22633;DHT22;11483;55.828;37.488;2023-03-21T10:14:48;13.10;99.90
22633;DHT22;11483;55.828;37.488;2023-03-21T10:20:06;14.30;99.90
22633;DHT22;11483;55.828;37.488;2023-03-21T10:22:36;14.60;99.90
22633;DHT22;11483;55.828;37.488;2023-03-21T10:25:03;15.20;99.90
22633;DHT22;11483;55.828;37.488;2023-03-21T10:27:31;15.40;99.90
22633;DHT22;11483;55.828;37.488;2023-03-21T10:29:58;15.50;99.90
22633;DHT22;11483;55.828;37.488;2023-03-21T10:32:25;15.70;99.90
22633;DHT22;11483;55.828;37.488;2023-03-21T10:34:56;15.60;99.90
22633;DHT22;11483;55.828;37.488;2023-03-21T10:37:23;15.70;99.90
22633;DHT22;11483;55.828;37.488;2023-03-21T10:39:51;15.90;99.90
22633;DHT22;11483;55.828;37.488;2023-03-21T10:42:24;16.50;99.90
22633;DHT22;11483;55.828;37.488;2023-03-21T10:44:55;16.50;99.90
22633;DHT22;11483;55.828;37.488;2023-03-21T10:47:29;16.40;99.90
22633;DHT22;11483;55.828;37.488;2023-03-21T10:49:56;16.50;99.90
22633;DHT22;11483;55.828;37.488;2023-03-21T10:52:27;17.80;99.90
22633;DHT22;11483;55.828;37.488;2023-03-21T10:55:24;19.00;97.40
22633;DHT22;11483;55.828;37.488;2023-03-21T10:58:07;19.90;93.80
22633;DHT22;11483;55.828;37.488;2023-03-21T11:00:40;19.90;91.70
22633;DHT22;11483;55.828;37.488;2023-03-21T11:03:15;20.00;87.80
22633;DHT22;11483;55.828;37.488;2023-03-21T11:05:45;20.00;85.10
22633;DHT22;11483;55.828;37.488;2023-03-21T11:08:16;20.40;83.60
22633;DHT22;11483;55.828;37.488;2023-03-21T11:11:04;20.70;80.60
22633;DHT22;11483;55.828;37.488;2023-03-21T11:13:40;20.20;79.50
22633;DHT22;11483;55.828;37.488;2023-03-21T11:16:17;20.10;79.40
22633;DHT22;11483;55.828;37.488;2023-03-21T11:18:48;20.30;79.30
22633;DHT22;11483;55.828;37.488;2023-03-21T11:21:14;20.30;76.40
22633;DHT22;11483;55.828;37.488;2023-03-21T11:23:47;20.10;76.30
22633;DHT22;11483;55.828;37.488;2023-03-21T11:26:40;20.20;76.70
22633;DHT22;11483;55.828;37.488;2023-03-21T11:31:57;20.10;72.40
22633;DHT22;11483;55.828;37.488;2023-03-21T11:34:44;19.20;74.10
22633;DHT22;11483;55.828;37.488;2023-03-21T11:40:51;16.60;78.00
22633;DHT22;11483;55.828;37.488;2023-03-21T11:42:50;15.40;80.20
22633;DHT22;11483;55.828;37.488;2023-03-21T11:45:19;15.40;82.60
22633;DHT22;11483;55.828;37.488;2023-03-21T11:47:46;16.20;81.60
22633;DHT22;11483;55.828;37.488;2023-03-21T11:50:24;16.90;79.00
22633;DHT22;11483;55.828;37.488;2023-03-21T11:53:04;17.60;78.20
22633;DHT22;11483;55.828;37.488;2023-03-21T11:55:49;18.20;75.80
22633;DHT22;11483;55.828;37.488;2023-03-21T11:58:32;18.80;74.70
22633;DHT22;11483;55.828;37.488;2023-03-21T12:04:02;17.80;70.70
22633;DHT22;11483;55.828;37.488;2023-03-21T12:09:38;16.20;73.80
22633;DHT22;11483;55.828;37.488;2023-03-21T12:25:15;16.40;72.40
22633;DHT22;11483;55.828;37.488;2023-03-21T12:27:52;16.60;72.90
22633;DHT22;11483;55.828;37.488;2023-03-21T12:36:24;18.10;69.70
22633;DHT22;11483;55.828;37.488;2023-03-21T12:39:08;18.10;68.70
22633;DHT22;11483;55.828;37.488;2023-03-21T12:41:43;18.00;68.00
22633;DHT22;11483;55.828;37.488;2023-03-21T12:44:21;17.60;67.80
22633;DHT22;11483;55.828;37.488;2023-03-21T12:47:05;17.20;68.90
22633;DHT22;11483;55.828;37.488;2023-03-21T12:49:46;16.60;69.40
22633;DHT22;11483;55.828;37.488;2023-03-21T12:54:54;16.40;69.70
22633;DHT22;11483;55.828;37.488;2023-03-21T12:57:46;16.70;69.40
22633;DHT22;11483;55.828;37.488;2023-03-21T13:00:24;16.90;69.00
22633;DHT22;11483;55.828;37.488;2023-03-21T13:03:41;17.30;68.00
22633;DHT22;11483;55.828;37.488;2023-03-21T13:05:54;17.50;67.00
22633;DHT22;11483;55.828;37.488;2023-03-21T13:11:22;17.90;66.60
22633;DHT22;11483;55.828;37.488;2023-03-21T13:19:06;17.70;65.70
22633;DHT22;11483;55.828;37.488;2023-03-21T13:21:49;17.80;65.60
22633;DHT22;11483;55.828;37.488;2023-03-21T13:27:06;17.60;65.60
22633;DHT22;11483;55.828;37.488;2023-03-21T13:33:04;17.90;65.10
22633;DHT22;11483;55.828;37.488;2023-03-21T13:35:37;17.90;65.30
22633;DHT22;11483;55.828;37.488;2023-03-21T13:38:20;17.90;65.10
22633;DHT22;11483;55.828;37.488;2023-03-21T13:40:56;18.00;64.60
22633;DHT22;11483;55.828;37.488;2023-03-21T13:43:43;17.60;64.80
22633;DHT22;11483;55.828;37.488;2023-03-21T13:46:12;17.20;65.60
22633;DHT22;11483;55.828;37.488;2023-03-21T13:59:37;16.10;66.30
22633;DHT22;11483;55.828;37.488;2023-03-21T14:02:30;15.20;68.20
22633;DHT22;11483;55.828;37.488;2023-03-21T14:05:04;14.50;69.00
22633;DHT22;11483;55.828;37.488;2023-03-21T14:07:41;14.10;70.00
22633;DHT22;11483;55.828;37.488;2023-03-21T14:10:38;13.90;70.40
22633;DHT22;11483;55.828;37.488;2023-03-21T14:13:07;13.80;70.90
22633;DHT22;11483;55.828;37.488;2023-03-21T14:15:48;13.60;71.20
22633;DHT22;11483;55.828;37.488;2023-03-21T14:18:19;13.30;71.20
22633;DHT22;11483;55.828;37.488;2023-03-21T14:20:54;12.90;72.00
22633;DHT22;11483;55.828;37.488;2023-03-21T14:23:21;12.40;72.30
22633;DHT22;11483;55.828;37.488;2023-03-21T14:25:48;12.10;73.40
22633;DHT22;11483;55.828;37.488;2023-03-21T14:30:43;11.80;75.00
22633;DHT22;11483;55.828;37.488;2023-03-21T14:33:37;11.70;74.60
22633;DHT22;11483;55.828;37.488;2023-03-21T14:36:11;11.60;74.70
22633;DHT22;11483;55.828;37.488;2023-03-21T14:38:39;11.50;74.50
22633;DHT22;11483;55.828;37.488;2023-03-21T14:41:21;11.30;75.10
22633;DHT22;11483;55.828;37.488;2023-03-21T14:44:01;11.30;75.50
22633;DHT22;11483;55.828;37.488;2023-03-21T14:46:32;11.20;75.70
22633;DHT22;11483;55.828;37.488;2023-03-21T14:49:10;11.20;76.80
22633;DHT22;11483;55.828;37.488;2023-03-21T14:51:37;11.10;76.80
22633;DHT22;11483;55.828;37.488;2023-03-21T14:54:04;11.00;77.30
22633;DHT22;11483;55.828;37.488;2023-03-21T14:56:33;11.00;77.10
22633;DHT22;11483;55.828;37.488;2023-03-21T14:59:00;10.90;77.20
22633;DHT22;11483;55.828;37.488;2023-03-21T15:01:31;10.90;77.70
22633;DHT22;11483;55.828;37.488;2023-03-21T15:03:59;10.80;77.80
22633;DHT22;11483;55.828;37.488;2023-03-21T15:06:25;10.80;78.20
22633;DHT22;11483;55.828;37.488;2023-03-21T15:09:00;10.70;78.20
22633;DHT22;11483;55.828;37.488;2023-03-21T15:11:33;10.70;78.50
22633;DHT22;11483;55.828;37.488;2023-03-21T15:14:02;10.60;78.70
22633;DHT22;11483;55.828;37.488;2023-03-21T15:16:30;10.50;79.00
22633;DHT22;11483;55.828;37.488;2023-03-21T15:18:58;10.50;79.00
22633;DHT22;11483;55.828;37.488;2023-03-21T15:21:47;10.50;79.10
22633;DHT22;11483;55.828;37.488;2023-03-21T15:24:24;10.40;79.00
22633;DHT22;11483;55.828;37.488;2023-03-21T15:26:58;10.40;79.20
22633;DHT22;11483;55.828;37.488;2023-03-21T15:29:25;10.40;79.40
22633;DHT22;11483;55.828;37.488;2023-03-21T15:31:52;10.40;79.50
22633;DHT22;11483;55.828;37.488;2023-03-21T15:34:28;10.40;79.50
22633;DHT22;11483;55.828;37.488;2023-03-21T15:37:03;10.40;79.70
22633;DHT22;11483;55.828;37.488;2023-03-21T15:39:30;10.30;79.60
22633;DHT22;11483;55.828;37.488;2023-03-21T15:42:28;10.30;78.90
22633;DHT22;11483;55.828;37.488;2023-03-21T15:44:57;10.20;79.00
22633;DHT22;11483;55.828;37.488;2023-03-21T15:50:10;10.10;78.30
22633;DHT22;11483;55.828;37.488;2023-03-21T15:52:37;10.10;78.40
22633;DHT22;11483;55.828;37.488;2023-03-21T15:55:17;10.20;78.30
22633;DHT22;11483;55.828;37.488;2023-03-21T15:57:46;10.20;78.20
22633;DHT22;11483;55.828;37.488;2023-03-21T16:02:42;10.10;78.20
22633;DHT22;11483;55.828;37.488;2023-03-21T16:05:29;10.00;77.90
22633;DHT22;11483;55.828;37.488;2023-03-21T16:08:26;10.00;78.20
22633;DHT22;11483;55.828;37.488;2023-03-21T16:10:52;9.90;78.30
22633;DHT22;11483;55.828;37.488;2023-03-21T16:13:18;9.90;77.90
22633;DHT22;11483;55.828;37.488;2023-03-21T16:15:44;9.90;77.80
22633;DHT22;11483;55.828;37.488;2023-03-21T16:18:14;9.80;77.90
22633;DHT22;11483;55.828;37.488;2023-03-21T16:20:45;9.70;81.50
22633;DHT22;11483;55.828;37.488;2023-03-21T16:23:13;9.70;81.00
22633;DHT22;11483;55.828;37.488;2023-03-21T16:25:40;9.70;81.80
22633;DHT22;11483;55.828;37.488;2023-03-21T16:28:25;9.70;81.30
22633;DHT22;11483;55.828;37.488;2023-03-21T16:30:51;9.70;80.90
22633;DHT22;11483;55.828;37.488;2023-03-21T16:33:17;9.70;80.80
22633;DHT22;11483;55.828;37.488;2023-03-21T16:35:43;9.70;80.10
22633;DHT22;11483;55.828;37.488;2023-03-21T16:38:10;9.70;79.90
22633;DHT22;11483;55.828;37.488;2023-03-21T16:40:39;9.70;79.60
22633;DHT22;11483;55.828;37.488;2023-03-21T16:43:06;9.60;79.80
22633;DHT22;11483;55.828;37.488;2023-03-21T16:45:36;9.60;79.70
22633;DHT22;11483;55.828;37.488;2023-03-21T16:48:03;9.60;79.60
22633;DHT22;11483;55.828;37.488;2023-03-21T16:52:58;9.50;79.50
22633;DHT22;11483;55.828;37.488;2023-03-21T16:55:24;9.50;80.00
22633;DHT22;11483;55.828;37.488;2023-03-21T16:57:51;9.50;80.10
22633;DHT22;11483;55.828;37.488;2023-03-21T17:00:21;9.50;80.20
22633;DHT22;11483;55.828;37.488;2023-03-21T17:02:51;9.50;80.30
22633;DHT22;11483;55.828;37.488;2023-03-21T17:05:20;9.50;80.80
22633;DHT22;11483;55.828;37.488;2023-03-21T17:07:46;9.40;80.90
22633;DHT22;11483;55.828;37.488;2023-03-21T17:10:21;9.40;80.80
22633;DHT22;11483;55.828;37.488;2023-03-21T17:12:48;9.30;81.20
22633;DHT22;11483;55.828;37.488;2023-03-21T17:15:15;9.20;81.60
22633;DHT22;11483;55.828;37.488;2023-03-21T17:17:41;9.30;82.10
22633;DHT22;11483;55.828;37.488;2023-03-21T17:20:19;9.40;84.80
22633;DHT22;11483;55.828;37.488;2023-03-21T17:22:47;9.10;87.70
22633;DHT22;11483;55.828;37.488;2023-03-21T17:25:14;9.00;92.30
22633;DHT22;11483;55.828;37.488;2023-03-21T17:27:40;8.90;94.70
22633;DHT22;11483;55.828;37.488;2023-03-21T17:30:24;8.70;99.90